createdAt,value
2022-09-24T00:01:36.262Z,1.00
2022-09-24T00:04:06.111Z,1.00
2022-09-24T00:06:44.956Z,1.00
2022-09-24T00:09:13.498Z,1.00
2022-09-24T00:11:40.927Z,1.00
2022-09-24T00:14:08.379Z,1.00
2022-09-24T00:16:35.894Z,1.00
2022-09-24T00:19:03.942Z,1.00
2022-09-24T00:21:34.021Z,1.00
2022-09-24T00:24:41.529Z,1.00
2022-09-24T00:27:08.506Z,1.00
2022-09-24T00:29:36.171Z,1.00
2022-09-24T00:32:04.507Z,1.00
2022-09-24T00:34:31.687Z,1.00
2022-09-24T00:36:59.220Z,1.00
2022-09-24T00:39:26.176Z,1.00
2022-09-24T00:41:53.173Z,1.00
2022-09-24T00:44:41.714Z,1.00
2022-09-24T00:47:23.537Z,1.00
2022-09-24T00:49:51.406Z,1.00
2022-09-24T00:52:19.267Z,1.00
2022-09-24T00:54:46.917Z,1.00
2022-09-24T00:57:14.728Z,1.00
2022-09-24T00:59:43.053Z,1.00
2022-09-24T01:02:10.515Z,1.00
2022-09-24T01:04:37.503Z,1.00
2022-09-24T01:07:04.396Z,1.00
2022-09-24T01:09:31.444Z,1.00
2022-09-24T01:12:22.795Z,1.00
2022-09-24T01:15:15.507Z,1.00
2022-09-24T01:18:03.611Z,1.00
2022-09-24T01:20:48.953Z,1.00
2022-09-24T01:23:37.109Z,1.00
2022-09-24T01:26:42.240Z,1.00
2022-09-24T01:29:26.922Z,1.00
2022-09-24T01:32:02.181Z,1.00
2022-09-24T01:34:36.678Z,1.00
2022-09-24T01:37:04.492Z,1.00
2022-09-24T01:39:33.347Z,1.00
2022-09-24T01:42:01.218Z,1.00
2022-09-24T01:44:28.267Z,1.00
2022-09-24T01:46:55.723Z,1.00
2022-09-24T01:49:22.657Z,1.00
2022-09-24T01:51:56.278Z,1.00
2022-09-24T01:54:37.322Z,1.00
2022-09-24T01:57:15.699Z,1.00
2022-09-24T01:59:52.724Z,1.00
2022-09-24T02:02:33.120Z,1.00
2022-09-24T02:05:07.990Z,1.00
2022-09-24T02:07:55.124Z,1.00
2022-09-24T02:10:22.000Z,1.00
2022-09-24T02:13:01.803Z,1.00
2022-09-24T02:15:33.484Z,1.00
2022-09-24T02:18:06.687Z,1.00
2022-09-24T02:20:36.180Z,1.00
2022-09-24T02:23:05.020Z,1.00
2022-09-24T02:25:37.541Z,1.00
2022-09-24T02:28:04.512Z,1.00
2022-09-24T02:30:43.662Z,1.00
2022-09-24T02:33:33.010Z,1.00
2022-09-24T02:36:00.148Z,1.00
2022-09-24T02:38:27.280Z,1.00
2022-09-24T02:40:55.127Z,1.00
2022-09-24T02:43:22.179Z,1.00
2022-09-24T02:45:49.066Z,1.00
2022-09-24T02:48:15.951Z,1.00
2022-09-24T02:50:42.901Z,1.00
2022-09-24T02:53:09.808Z,1.00
2022-09-24T02:55:36.679Z,1.00
2022-09-24T02:58:03.603Z,1.00
2022-09-24T03:00:30.495Z,1.00
2022-09-24T03:02:57.411Z,1.00
2022-09-24T03:05:24.803Z,1.00
2022-09-24T03:07:51.678Z,1.00
2022-09-24T03:10:19.124Z,1.00
2022-09-24T03:12:46.081Z,1.00
2022-09-24T03:15:13.037Z,1.00
2022-09-24T03:17:39.912Z,1.00
2022-09-24T03:20:07.560Z,1.00
2022-09-24T03:22:34.478Z,1.00
2022-09-24T03:25:02.690Z,1.00
2022-09-24T03:27:29.705Z,1.00
2022-09-24T03:30:14.909Z,1.00
2022-09-24T03:32:41.865Z,1.00
2022-09-24T03:35:09.082Z,1.00
2022-09-24T03:37:40.026Z,1.00
2022-09-24T03:40:08.120Z,1.00
2022-09-24T03:42:35.347Z,1.00
2022-09-24T03:45:02.358Z,1.00
2022-09-24T03:47:31.042Z,1.00
2022-09-24T03:49:58.430Z,1.00
2022-09-24T03:52:26.353Z,1.00
2022-09-24T03:54:53.246Z,1.00
2022-09-24T03:57:20.263Z,1.00
2022-09-24T03:59:47.417Z,1.00
2022-09-24T04:02:14.579Z,1.00
2022-09-24T04:04:42.130Z,1.00
2022-09-24T04:07:09.047Z,1.00
2022-09-24T04:09:36.188Z,1.00
2022-09-24T04:12:03.103Z,1.00
2022-09-24T04:14:30.012Z,1.00
2022-09-24T04:16:59.049Z,1.00
2022-09-24T04:19:26.922Z,1.00
2022-09-24T04:21:53.812Z,1.00
2022-09-24T04:24:21.388Z,1.00
2022-09-24T04:26:48.303Z,1.00
2022-09-24T04:29:15.288Z,1.00
2022-09-24T04:31:42.329Z,1.00
2022-09-24T04:34:10.250Z,1.00
2022-09-24T04:36:37.257Z,1.00
2022-09-24T04:39:04.276Z,1.00
2022-09-24T04:41:31.236Z,1.00
2022-09-24T04:43:59.439Z,1.00
2022-09-24T04:46:26.411Z,1.00
2022-09-24T04:48:53.370Z,1.00
2022-09-24T04:51:21.426Z,1.00
2022-09-24T04:53:51.086Z,1.00
2022-09-24T04:56:18.087Z,1.00
2022-09-24T04:58:45.018Z,1.00
2022-09-24T05:01:13.610Z,1.00
2022-09-24T05:03:41.095Z,1.00
2022-09-24T05:06:08.096Z,1.00
2022-09-24T05:08:35.027Z,1.00
2022-09-24T05:11:02.622Z,1.00
2022-09-24T05:13:29.624Z,1.00
2022-09-24T05:15:56.779Z,1.00
2022-09-24T05:18:23.781Z,1.00
2022-09-24T05:20:50.868Z,1.00
2022-09-24T05:23:18.117Z,8.20
2022-09-24T05:26:03.752Z,21.30
2022-09-24T05:28:33.249Z,20.20
2022-09-24T05:31:00.565Z,12.70
2022-09-24T05:33:27.486Z,1.00
2022-09-24T05:35:58.152Z,1.00
2022-09-24T05:38:25.251Z,4.20
2022-09-24T05:40:52.230Z,1.00
2022-09-24T05:43:22.276Z,1.00
2022-09-24T05:45:50.711Z,1.00
2022-09-24T05:48:17.620Z,1.00
2022-09-24T05:50:44.579Z,1.00
2022-09-24T05:53:11.542Z,1.00
2022-09-24T05:55:38.827Z,1.00
2022-09-24T05:58:07.671Z,1.00
2022-09-24T06:00:36.254Z,1.00
2022-09-24T06:03:12.907Z,1.00
2022-09-24T06:05:48.610Z,1.00
2022-09-24T06:08:20.730Z,1.00
2022-09-24T06:10:48.221Z,1.00
2022-09-24T06:13:19.271Z,1.00
2022-09-24T06:15:46.834Z,1.00
2022-09-24T06:18:13.835Z,1.00
2022-09-24T06:20:40.723Z,1.40
2022-09-24T06:23:08.157Z,1.00
2022-09-24T06:25:35.201Z,2.90
2022-09-24T06:28:04.064Z,1.00
2022-09-24T06:30:38.525Z,1.00
2022-09-24T06:33:08.584Z,1.00
2022-09-24T06:35:39.963Z,1.00
2022-09-24T06:38:08.698Z,1.00
2022-09-24T06:40:37.385Z,1.00
2022-09-24T06:43:05.813Z,1.00
2022-09-24T06:45:33.293Z,1.00
2022-09-24T06:48:02.173Z,1.00
2022-09-24T06:50:31.104Z,1.00
2022-09-24T06:52:59.214Z,1.00
2022-09-24T06:55:26.205Z,1.00
2022-09-24T06:58:07.866Z,1.00
2022-09-24T07:03:01.699Z,1.00
2022-09-24T07:05:28.738Z,1.00
2022-09-24T07:07:55.713Z,1.00
2022-09-24T07:10:24.536Z,1.00
2022-09-24T07:12:51.606Z,1.00
2022-09-24T07:15:18.517Z,1.00
2022-09-24T07:17:45.453Z,1.00
2022-09-24T07:20:12.527Z,1.00
2022-09-24T07:22:40.444Z,1.00
2022-09-24T07:25:09.790Z,1.00
2022-09-24T07:27:37.760Z,1.00
2022-09-24T07:30:09.603Z,1.00
2022-09-24T07:32:36.525Z,1.00
2022-09-24T07:35:03.683Z,1.00
2022-09-24T07:37:32.683Z,1.00
2022-09-24T07:39:59.922Z,1.00
2022-09-24T07:42:28.078Z,1.00
2022-09-24T07:44:56.691Z,99.90
2022-09-24T07:47:23.826Z,99.90
2022-09-24T07:49:50.783Z,99.90
2022-09-24T07:52:17.716Z,99.90
2022-09-24T07:54:44.726Z,99.90
2022-09-24T07:57:15.490Z,99.90
2022-09-24T07:59:44.862Z,99.90
2022-09-24T08:02:17.109Z,55.70
2022-09-24T08:04:45.112Z,71.20
2022-09-24T08:07:13.829Z,99.90
2022-09-24T08:09:40.974Z,99.90
2022-09-24T08:12:08.501Z,1.00
2022-09-24T08:14:35.497Z,1.00
2022-09-24T08:17:02.899Z,1.00
2022-09-24T08:19:31.439Z,1.00
2022-09-24T08:21:58.759Z,99.90
2022-09-24T08:24:26.041Z,1.00
2022-09-24T08:26:53.038Z,1.00
2022-09-24T08:29:19.954Z,1.00
2022-09-24T08:31:47.009Z,18.10
2022-09-24T08:34:14.092Z,99.90
2022-09-24T08:36:43.201Z,99.90
2022-09-24T08:39:10.647Z,99.90
2022-09-24T08:41:49.858Z,1.00
2022-09-24T08:44:54.178Z,99.90
2022-09-24T08:47:38.951Z,99.90
2022-09-24T08:50:22.036Z,23.80
2022-09-24T08:53:09.714Z,1.00
2022-09-24T08:55:41.355Z,1.00
2022-09-24T08:58:17.166Z,56.40
2022-09-24T09:00:50.592Z,1.00
2022-09-24T09:03:47.758Z,1.00
2022-09-24T09:06:23.325Z,1.00
2022-09-24T09:09:19.869Z,99.90
2022-09-24T09:12:02.390Z,44.10
2022-09-24T09:14:55.674Z,1.00
2022-09-24T09:17:52.456Z,1.00
2022-09-24T09:20:24.646Z,1.00
2022-09-24T09:22:53.579Z,99.90
2022-09-24T09:25:28.522Z,99.90
2022-09-24T09:27:58.930Z,99.90
2022-09-24T09:30:26.025Z,51.10
2022-09-24T09:33:14.624Z,1.00
2022-09-24T09:36:02.486Z,1.00
2022-09-24T09:38:43.711Z,1.00
2022-09-24T09:41:29.215Z,1.00
2022-09-24T09:44:27.104Z,1.00
2022-09-24T09:47:11.826Z,1.00
2022-09-24T09:49:40.492Z,1.00
2022-09-24T09:52:20.956Z,1.00
2022-09-24T09:54:48.822Z,1.00
2022-09-24T09:57:22.038Z,1.00
2022-09-24T09:59:51.141Z,1.00
2022-09-24T10:02:31.661Z,1.00
2022-09-24T10:05:01.111Z,1.00
2022-09-24T10:07:28.755Z,1.00
2022-09-24T10:10:03.168Z,1.00
2022-09-24T10:12:30.768Z,1.00
2022-09-24T10:15:15.534Z,1.00
2022-09-24T10:17:43.889Z,1.00
2022-09-24T10:20:31.462Z,1.00
2022-09-24T10:23:02.607Z,1.00
2022-09-24T10:25:31.571Z,1.00
2022-09-24T10:28:25.411Z,1.00
2022-09-24T10:31:03.697Z,1.00
2022-09-24T10:33:42.882Z,1.00
2022-09-24T10:36:15.828Z,1.00
2022-09-24T10:38:43.881Z,1.00
2022-09-24T10:41:28.644Z,1.00
2022-09-24T10:43:57.194Z,1.00
2022-09-24T10:46:35.956Z,1.00
2022-09-24T10:49:02.824Z,1.00
2022-09-24T10:52:12.822Z,1.00
2022-09-24T10:55:07.222Z,1.00
2022-09-24T10:57:52.821Z,1.00
2022-09-24T11:00:32.874Z,1.00
2022-09-24T11:03:17.719Z,1.00
2022-09-24T11:05:52.360Z,1.00
2022-09-24T11:08:31.459Z,1.00
2022-09-24T11:11:28.181Z,1.00
2022-09-24T11:14:21.969Z,1.00
2022-09-24T11:17:06.466Z,1.00
2022-09-24T11:20:06.747Z,1.00
2022-09-24T11:22:45.419Z,1.00
2022-09-24T11:25:32.223Z,1.00
2022-09-24T11:28:20.112Z,1.00
2022-09-24T11:31:01.908Z,1.00
2022-09-24T11:33:34.944Z,1.00
2022-09-24T11:36:10.684Z,1.00
2022-09-24T11:38:43.471Z,1.00
2022-09-24T11:41:13.586Z,1.00
2022-09-24T11:44:13.533Z,1.00
2022-09-24T11:47:14.094Z,1.00
2022-09-24T11:49:59.426Z,1.00
2022-09-24T11:52:44.020Z,1.00
2022-09-24T11:55:23.222Z,1.00
2022-09-24T11:58:19.465Z,1.00
2022-09-24T12:01:15.086Z,1.00
2022-09-24T12:03:59.008Z,1.00
2022-09-24T12:06:33.449Z,1.00
2022-09-24T12:09:10.594Z,1.00
2022-09-24T12:11:42.925Z,1.00
2022-09-24T12:14:26.829Z,1.00
2022-09-24T12:17:01.283Z,1.00
2022-09-24T12:19:39.375Z,1.00
2022-09-24T12:22:06.938Z,1.00
2022-09-24T12:24:55.088Z,1.00
2022-09-24T12:27:28.866Z,1.00
2022-09-24T12:30:14.197Z,1.00
2022-09-24T12:32:57.562Z,1.00
2022-09-24T12:35:34.431Z,1.00
2022-09-24T12:38:04.671Z,1.00
2022-09-24T12:40:53.895Z,1.00
2022-09-24T12:43:34.560Z,1.00
2022-09-24T12:46:06.455Z,1.00
2022-09-24T12:48:37.406Z,1.00
2022-09-24T12:51:09.047Z,1.00
2022-09-24T12:53:40.279Z,1.00
2022-09-24T12:56:07.873Z,1.00
2022-09-24T12:58:43.791Z,1.00
2022-09-24T13:01:26.077Z,1.00
2022-09-24T13:04:26.730Z,1.00
2022-09-24T13:06:54.352Z,1.00
2022-09-24T13:09:37.823Z,1.00
2022-09-24T13:12:16.519Z,1.00
2022-09-24T13:15:10.781Z,1.00
2022-09-24T13:17:40.458Z,1.00
2022-09-24T13:20:17.324Z,1.00
2022-09-24T13:22:55.870Z,1.00
2022-09-24T13:25:24.672Z,1.00
2022-09-24T13:28:37.720Z,1.00
2022-09-24T13:31:26.096Z,1.00
2022-09-24T13:34:03.371Z,1.00
2022-09-24T13:36:36.037Z,1.00
2022-09-24T13:39:12.262Z,1.00
2022-09-24T13:41:42.239Z,1.00
2022-09-24T13:44:16.590Z,1.00
2022-09-24T13:46:46.783Z,1.00
2022-09-24T13:49:18.774Z,1.00
2022-09-24T13:51:50.929Z,1.00
2022-09-24T13:54:36.964Z,1.00
2022-09-24T13:57:11.997Z,1.00
2022-09-24T13:59:39.030Z,1.00
2022-09-24T14:02:26.887Z,1.00
2022-09-24T14:05:01.480Z,1.00
2022-09-24T14:07:29.761Z,1.00
2022-09-24T14:10:06.505Z,1.00
2022-09-24T14:12:33.512Z,1.00
2022-09-24T14:15:00.488Z,1.00
2022-09-24T14:17:27.564Z,1.00
2022-09-24T14:19:58.068Z,1.00
2022-09-24T14:22:34.073Z,1.00
2022-09-24T14:25:09.089Z,1.00
2022-09-24T14:27:45.034Z,1.00
2022-09-24T14:30:23.780Z,1.00
2022-09-24T14:33:15.246Z,1.00
2022-09-24T14:35:48.117Z,1.00
2022-09-24T14:38:41.303Z,1.00
2022-09-24T14:41:21.756Z,1.00
2022-09-24T14:44:14.549Z,1.00
2022-09-24T14:46:51.123Z,1.00
2022-09-24T14:49:27.172Z,1.00
2022-09-24T14:52:02.957Z,1.00
2022-09-24T14:54:40.666Z,1.00
2022-09-24T14:57:19.440Z,1.00
2022-09-24T14:59:47.978Z,1.00
2022-09-24T15:02:25.388Z,1.00
2022-09-24T15:04:55.731Z,1.00
2022-09-24T15:07:25.875Z,1.00
2022-09-24T15:10:05.334Z,1.00
2022-09-24T15:12:41.043Z,1.00
2022-09-24T15:15:32.229Z,1.00
2022-09-24T15:17:59.125Z,1.00
2022-09-24T15:20:26.157Z,1.00
2022-09-24T15:22:53.144Z,1.00
2022-09-24T15:25:20.066Z,1.00
2022-09-24T15:27:47.184Z,1.00
2022-09-24T15:30:20.006Z,1.00
2022-09-24T15:32:47.774Z,1.00
2022-09-24T15:35:16.568Z,1.00
2022-09-24T15:37:44.869Z,1.00
2022-09-24T15:40:25.698Z,1.00
2022-09-24T15:42:53.121Z,1.00
2022-09-24T15:45:23.065Z,1.00
2022-09-24T15:47:50.965Z,1.00
2022-09-24T15:50:19.607Z,1.00
2022-09-24T15:52:57.053Z,1.00
2022-09-24T15:55:24.330Z,1.00
2022-09-24T15:57:51.381Z,1.00
2022-09-24T16:00:23.526Z,1.00
2022-09-24T16:02:56.619Z,14.80
2022-09-24T16:05:24.747Z,24.30
2022-09-24T16:07:51.700Z,40.60
2022-09-24T16:10:18.762Z,69.80
2022-09-24T16:12:45.704Z,91.50
2022-09-24T16:15:14.515Z,99.80
2022-09-24T16:17:41.786Z,99.90
2022-09-24T16:20:10.171Z,99.90
2022-09-24T16:22:37.114Z,99.90
2022-09-24T16:25:05.127Z,99.90
2022-09-24T16:27:32.155Z,99.90
2022-09-24T16:29:59.479Z,99.90
2022-09-24T16:32:26.383Z,99.90
2022-09-24T16:34:55.051Z,99.90
2022-09-24T16:37:22.006Z,99.90
2022-09-24T16:39:48.993Z,99.90
2022-09-24T16:42:16.084Z,99.90
2022-09-24T16:44:43.008Z,99.90
2022-09-24T16:47:10.178Z,99.90
2022-09-24T16:49:37.139Z,99.90
2022-09-24T16:52:04.525Z,99.90
2022-09-24T16:54:32.774Z,99.90
2022-09-24T16:57:01.867Z,99.90
2022-09-24T16:59:29.076Z,1.00
2022-09-24T17:01:56.054Z,1.00
2022-09-24T17:04:23.084Z,1.00
2022-09-24T17:06:49.993Z,1.00
2022-09-24T17:09:35.603Z,1.00
2022-09-24T17:12:02.548Z,9.60
2022-09-24T17:14:29.532Z,99.90
2022-09-24T17:16:56.609Z,99.90
2022-09-24T17:19:23.682Z,99.90
2022-09-24T17:21:50.731Z,1.00
2022-09-24T17:24:21.470Z,1.00
2022-09-24T17:26:49.132Z,2.20
2022-09-24T17:29:18.430Z,65.90
2022-09-24T17:31:45.392Z,99.90
2022-09-24T17:34:15.155Z,99.90
2022-09-24T17:36:42.845Z,99.90
2022-09-24T17:39:12.976Z,99.90
2022-09-24T17:41:40.000Z,99.90
2022-09-24T17:44:07.341Z,1.00
2022-09-24T17:46:36.029Z,1.00
2022-09-24T17:49:03.299Z,1.00
2022-09-24T17:51:33.186Z,99.90
2022-09-24T17:54:07.306Z,99.90
2022-09-24T17:56:39.087Z,99.90
2022-09-24T17:59:08.338Z,1.00
2022-09-24T18:01:37.258Z,1.00
2022-09-24T18:04:06.655Z,1.00
2022-09-24T18:06:37.529Z,1.00
2022-09-24T18:09:05.409Z,31.30
2022-09-24T18:11:52.843Z,99.90
2022-09-24T18:14:22.561Z,99.90
2022-09-24T18:16:50.250Z,99.90
2022-09-24T18:19:18.010Z,1.00
2022-09-24T18:21:46.484Z,41.90
2022-09-24T18:24:14.558Z,99.90
2022-09-24T18:26:41.682Z,99.90
2022-09-24T18:29:15.810Z,99.90
2022-09-24T18:31:44.115Z,1.00
2022-09-24T18:34:15.023Z,1.00
2022-09-24T18:36:43.478Z,1.00
2022-09-24T18:39:13.703Z,99.90
2022-09-24T18:41:41.873Z,99.90
2022-09-24T18:44:09.792Z,99.90
2022-09-24T18:46:36.938Z,99.90
2022-09-24T18:49:06.372Z,26.50
2022-09-24T18:51:36.015Z,1.00
2022-09-24T18:54:09.070Z,99.90
2022-09-24T18:56:36.499Z,99.90
2022-09-24T18:59:09.750Z,84.20
2022-09-24T19:01:37.970Z,1.00
2022-09-24T19:04:06.088Z,1.00
2022-09-24T19:06:36.201Z,1.00
2022-09-24T19:09:04.999Z,99.90
2022-09-24T19:11:32.698Z,1.00
2022-09-24T19:13:59.691Z,1.00
2022-09-24T19:16:26.848Z,99.90
2022-09-24T19:18:54.369Z,99.90
2022-09-24T19:21:24.433Z,99.90
2022-09-24T19:23:57.023Z,99.90
2022-09-24T19:26:32.136Z,99.90
2022-09-24T19:28:59.443Z,99.90
2022-09-24T19:31:34.739Z,99.90
2022-09-24T19:34:05.046Z,99.90
2022-09-24T19:36:38.701Z,99.90
2022-09-24T19:39:10.285Z,99.90
2022-09-24T19:41:37.639Z,99.90
2022-09-24T19:44:08.784Z,99.90
2022-09-24T19:46:38.651Z,99.90
2022-09-24T19:49:06.358Z,99.90
2022-09-24T19:51:34.534Z,99.90
2022-09-24T19:54:06.899Z,99.90
2022-09-24T19:56:34.682Z,99.90
2022-09-24T19:59:02.190Z,99.90
2022-09-24T20:01:31.777Z,99.90
2022-09-24T20:04:00.400Z,99.90
2022-09-24T20:06:29.319Z,99.90
2022-09-24T20:08:57.315Z,99.90
2022-09-24T20:11:25.737Z,99.90
2022-09-24T20:13:55.427Z,99.90
2022-09-24T20:16:26.343Z,99.90
2022-09-24T20:18:57.926Z,99.90
2022-09-24T20:21:27.829Z,99.90
2022-09-24T20:23:56.828Z,99.90
2022-09-24T20:26:42.786Z,1.00
2022-09-24T20:29:12.015Z,1.00
2022-09-24T20:31:47.346Z,1.00
2022-09-24T20:34:14.288Z,1.00
2022-09-24T20:36:41.153Z,1.00
2022-09-24T20:39:08.093Z,1.00
2022-09-24T20:41:35.114Z,1.00
2022-09-24T20:44:02.167Z,1.00
2022-09-24T20:46:29.485Z,1.00
2022-09-24T20:48:59.104Z,1.00
2022-09-24T20:51:28.881Z,1.00
2022-09-24T20:53:56.496Z,1.00
2022-09-24T20:56:23.612Z,1.00
2022-09-24T20:58:52.481Z,1.00
2022-09-24T21:01:21.191Z,1.00
2022-09-24T21:03:50.164Z,1.00
2022-09-24T21:06:18.630Z,1.00
2022-09-24T21:08:46.882Z,1.00
2022-09-24T21:11:20.127Z,1.00
2022-09-24T21:13:52.319Z,1.00
2022-09-24T21:16:22.493Z,1.00
2022-09-24T21:18:50.884Z,1.00
2022-09-24T21:21:20.548Z,1.00
2022-09-24T21:23:52.917Z,1.00
2022-09-24T21:26:28.394Z,1.00
2022-09-24T21:29:09.891Z,1.00
2022-09-24T21:31:38.352Z,1.00
2022-09-24T21:34:07.088Z,1.00
2022-09-24T21:36:43.662Z,1.00
2022-09-24T21:39:19.976Z,1.00
2022-09-24T21:41:55.029Z,1.00
2022-09-24T21:44:22.434Z,1.00
2022-09-24T21:46:52.723Z,1.00
2022-09-24T21:49:20.582Z,1.00
2022-09-24T21:51:47.910Z,1.00
2022-09-24T21:54:17.235Z,1.00
2022-09-24T21:56:45.634Z,1.00
2022-09-24T21:59:30.999Z,1.00
2022-09-24T22:01:58.276Z,1.00
2022-09-24T22:04:25.297Z,1.00
2022-09-24T22:06:52.643Z,1.00
2022-09-24T22:09:20.079Z,1.00
2022-09-24T22:11:47.521Z,1.00
2022-09-24T22:14:14.874Z,1.00
2022-09-24T22:16:42.164Z,1.00
2022-09-24T22:19:09.622Z,1.00
2022-09-24T22:21:36.887Z,1.00
2022-09-24T22:24:04.774Z,1.00
2022-09-24T22:26:31.762Z,1.00
2022-09-24T22:28:59.270Z,1.00
2022-09-24T22:31:26.961Z,1.00
2022-09-24T22:34:12.541Z,1.00
2022-09-24T22:36:39.879Z,1.00
2022-09-24T22:39:07.777Z,1.00
2022-09-24T22:41:43.278Z,1.00
2022-09-24T22:44:11.975Z,1.00
2022-09-24T22:46:39.678Z,1.00
2022-09-24T22:49:06.980Z,1.00
2022-09-24T22:51:34.291Z,1.00
2022-09-24T22:54:01.378Z,1.00
2022-09-24T22:56:30.059Z,1.00
2022-09-24T22:58:59.738Z,1.00
2022-09-24T23:01:41.567Z,1.00
2022-09-24T23:04:10.018Z,1.00
2022-09-24T23:06:37.548Z,1.00
2022-09-24T23:09:04.971Z,1.00
2022-09-24T23:11:34.348Z,1.00
2022-09-24T23:14:04.826Z,1.00
2022-09-24T23:16:36.495Z,1.00
2022-09-24T23:19:06.881Z,1.00
2022-09-24T23:21:34.864Z,1.00
2022-09-24T23:24:05.602Z,1.00
2022-09-24T23:26:32.886Z,1.00
2022-09-24T23:29:00.444Z,6.40
2022-09-24T23:31:29.870Z,9.70
2022-09-24T23:33:58.597Z,7.90
2022-09-24T23:36:27.098Z,14.40
2022-09-24T23:38:54.363Z,7.90
2022-09-24T23:41:21.862Z,1.80
2022-09-24T23:43:49.394Z,5.50
2022-09-24T23:46:16.886Z,15.30
2022-09-24T23:48:44.473Z,16.10
2022-09-24T23:51:11.817Z,20.30
2022-09-24T23:53:39.480Z,23.50
2022-09-24T23:56:07.711Z,30.20
2022-09-24T23:58:35.210Z,29.10
